Time;durP1;ratioP1;P1;durP2;ratioP2;P2;SDS_P1;SDS_P2;PMS_P1;PMS_P2;Temp;Humidity;BMP_temperature;BMP_pressure;BME280_temperature;BME280_humidity;BME280_pressure;Samples;Min_cycle;Max_cycle;Signal;HPM_P1;HPM_P2
2021/10/25 00:00:34;;;;;;;5.08;1.98;;;;;;;3.46;70.91;97693.10;1674946;84;21478;-80
2021/10/25 00:03:02;;;;;;;4.62;1.77;;;;;;;3.41;70.74;97686.97;1731463;81;21114;-80
2021/10/25 00:05:28;;;;;;;2.87;1.80;;;;;;;3.37;69.72;97693.25;1681594;83;21506;-79
2021/10/25 00:07:55;;;;;;;2.77;1.87;;;;;;;3.34;70.36;97687.52;1692657;82;21103;-80
2021/10/25 00:10:21;;;;;;;2.02;1.72;;;;;;;3.33;70.29;97693.58;1689079;83;21114;-80
2021/10/25 00:12:47;;;;;;;2.92;1.95;;;;;;;3.29;69.86;97691.69;1695570;82;21165;-80
2021/10/25 00:15:12;;;;;;;2.25;1.60;;;;;;;3.28;70.11;97686.19;1728701;81;21067;-80
2021/10/25 00:17:38;;;;;;;2.50;1.70;;;;;;;3.30;70.21;97683.87;1725026;81;21068;-80
2021/10/25 00:20:05;;;;;;;2.45;1.98;;;;;;;3.34;70.30;97685.77;1729494;81;21482;-80
2021/10/25 00:22:31;;;;;;;2.60;1.65;;;;;;;3.37;70.26;97684.27;1711094;80;21062;-80
2021/10/25 00:24:57;;;;;;;3.02;1.82;;;;;;;3.37;69.77;97684.27;1719583;81;21076;-80
2021/10/25 00:27:23;;;;;;;4.78;1.82;;;;;;;3.37;70.09;97679.13;1738373;81;21201;-80
2021/10/25 00:29:49;;;;;;;2.37;1.50;;;;;;;3.37;70.02;97682.98;1716335;80;21052;-80
2021/10/25 00:32:15;;;;;;;4.30;1.95;;;;;;;3.37;70.04;97682.16;1723389;80;21094;-80
2021/10/25 00:34:41;;;;;;;2.10;1.75;;;;;;;3.35;69.55;97681.45;1691371;81;21535;-80
2021/10/25 00:37:07;;;;;;;2.75;2.05;;;;;;;3.33;69.68;97673.03;1666715;83;21129;-80
2021/10/25 00:39:33;;;;;;;4.58;2.10;;;;;;;3.30;69.77;97672.78;1704227;82;21414;-80
2021/10/25 00:42:00;;;;;;;5.03;2.17;;;;;;;3.27;70.14;97674.28;1718663;81;21071;-80
2021/10/25 00:44:29;;;;;;;3.22;1.90;;;;;;;3.26;70.22;97678.59;1689651;83;21157;-80
2021/10/25 00:46:56;;;;;;;2.75;1.70;;;;;;;3.28;70.04;97673.34;1737238;80;21082;-80
2021/10/25 00:49:21;;;;;;;2.67;1.60;;;;;;;3.32;70.62;97676.06;1730435;80;21193;-80
2021/10/25 00:51:49;;;;;;;2.83;1.70;;;;;;;3.36;70.22;97671.06;1751927;80;21127;-80
2021/10/25 00:54:15;;;;;;;2.77;1.85;;;;;;;3.39;70.00;97668.73;1727166;81;21468;-80
2021/10/25 00:56:43;;;;;;;2.55;1.60;;;;;;;3.39;69.80;97664.88;1699982;81;21138;-80
2021/10/25 00:59:10;;;;;;;2.33;1.65;;;;;;;3.39;69.80;97660.56;1717850;82;21084;-80
2021/10/25 01:01:36;;;;;;;4.03;2.35;;;;;;;3.38;69.44;97660.21;1710102;82;21127;-80
2021/10/25 01:04:02;;;;;;;2.47;1.62;;;;;;;3.35;69.31;97662.17;1706243;81;21229;-80
2021/10/25 01:06:29;;;;;;;2.95;1.70;;;;;;;3.33;69.20;97658.43;1734224;80;21012;-80
2021/10/25 01:08:56;;;;;;;2.85;2.25;;;;;;;3.30;69.04;97653.51;1706600;80;21146;-80
2021/10/25 01:11:25;;;;;;;3.52;1.70;;;;;;;3.26;69.16;97649.05;1728216;82;21135;-80
2021/10/25 01:13:52;;;;;;;2.62;1.70;;;;;;;3.24;69.28;97645.73;1724386;81;21074;-80
2021/10/25 01:16:18;;;;;;;4.37;1.75;;;;;;;3.22;69.03;97650.16;1746347;80;21253;-80
2021/10/25 01:18:49;;;;;;;3.67;2.22;;;;;;;3.23;68.89;97648.42;1695349;81;21159;-80
2021/10/25 01:21:15;;;;;;;2.83;1.87;;;;;;;3.24;69.34;97648.31;1704327;81;21123;-80
2021/10/25 01:23:41;;;;;;;4.62;2.00;;;;;;;3.24;69.28;97644.92;1692358;80;21135;-80
2021/10/25 01:26:08;;;;;;;7.05;3.10;;;;;;;3.21;69.69;97649.81;1703011;83;21490;-80
2021/10/25 01:28:34;;;;;;;2.85;1.92;;;;;;;3.19;69.93;97646.99;1740712;80;21058;-80
2021/10/25 01:31:00;;;;;;;2.37;2.10;;;;;;;3.16;70.07;97646.74;1728887;81;21240;-80
2021/10/25 01:33:29;;;;;;;2.98;2.45;;;;;;;3.16;70.12;97639.50;1696983;82;21513;-80
2021/10/25 01:35:54;;;;;;;5.03;2.72;;;;;;;3.16;70.40;97634.37;1733681;81;21077;-80
2021/10/25 01:38:20;;;;;;;4.60;2.55;;;;;;;3.20;68.82;97631.94;1711667;81;21010;-80
2021/10/25 01:40:46;;;;;;;5.08;2.75;;;;;;;3.35;69.42;97628.78;1686271;81;21170;-81
2021/10/25 01:43:11;;;;;;;4.65;2.50;;;;;;;3.41;69.56;97622.73;1704655;81;21165;-80
2021/10/25 01:45:37;;;;;;;4.55;2.55;;;;;;;3.44;70.18;97626.41;1737321;79;21089;-80
2021/10/25 01:48:04;;;;;;;3.72;2.30;;;;;;;3.45;70.26;97628.51;1761353;79;21128;-80
2021/10/25 01:50:29;;;;;;;4.90;2.30;;;;;;;3.45;70.20;97620.33;1748951;79;21071;-80
2021/10/25 01:52:57;;;;;;;6.20;2.52;;;;;;;3.46;70.49;97619.87;1729915;80;21510;-80
2021/10/25 01:55:23;;;;;;;3.60;2.33;;;;;;;3.47;70.67;97620.22;1719712;81;21040;-80
2021/10/25 01:57:49;;;;;;;7.62;3.75;;;;;;;3.46;70.53;97609.59;1713625;81;21177;-81
2021/10/25 02:00:15;;;;;;;5.62;2.83;;;;;;;3.52;68.72;97614.29;1736429;79;21572;-80
2021/10/25 02:02:41;;;;;;;4.33;2.67;;;;;;;3.68;68.39;97610.17;1738932;81;21492;-80
2021/10/25 02:05:07;;;;;;;5.33;2.40;;;;;;;3.79;68.91;97607.20;1731911;81;21045;-80
2021/10/25 02:07:33;;;;;;;3.08;2.45;;;;;;;3.86;69.72;97606.28;1721213;80;21167;-80
2021/10/25 02:09:58;;;;;;;2.30;2.10;;;;;;;3.86;69.76;97608.39;1710955;80;21603;-80
2021/10/25 02:12:24;;;;;;;4.62;2.45;;;;;;;3.86;69.49;97598.58;1722629;81;21478;-80
2021/10/25 02:14:50;;;;;;;3.50;2.50;;;;;;;3.88;69.53;97596.71;1733988;81;21081;-80
2021/10/25 02:17:16;;;;;;;3.92;2.22;;;;;;;3.87;69.56;97597.64;1712052;82;21148;-80
2021/10/25 02:19:42;;;;;;;3.98;2.33;;;;;;;3.85;68.87;97590.05;1701559;81;21086;-80
2021/10/25 02:22:08;;;;;;;2.77;2.00;;;;;;;3.84;68.71;97587.58;1722224;82;21058;-80
2021/10/25 02:24:35;;;;;;;4.08;2.37;;;;;;;3.81;68.75;97596.81;1694661;83;21139;-80
2021/10/25 02:27:03;;;;;;;3.87;2.20;;;;;;;3.78;68.76;97595.28;1724709;81;21165;-80
2021/10/25 02:29:35;;;;;;;3.70;2.37;;;;;;;3.76;68.89;97593.29;1717627;81;21110;-80
2021/10/25 02:31:56;;;;;;;5.40;2.20;;;;;;;3.73;69.38;97595.23;1706595;82;21050;-80
2021/10/25 02:34:22;;;;;;;3.77;2.10;;;;;;;3.73;69.45;97590.91;1701541;81;21925;-80
2021/10/25 02:36:48;;;;;;;2.95;1.90;;;;;;;3.74;69.22;97587.44;1672893;83;21159;-80
2021/10/25 02:39:14;;;;;;;2.52;1.80;;;;;;;3.76;69.47;97581.72;1691990;83;21119;-80
2021/10/25 02:41:40;;;;;;;4.10;2.42;;;;;;;3.77;69.65;97585.11;1722673;82;21067;-80
2021/10/25 02:44:06;;;;;;;2.62;1.92;;;;;;;3.74;69.73;97586.59;1714043;82;21448;-81
2021/10/25 02:46:32;;;;;;;4.20;2.75;;;;;;;3.74;70.17;97576.31;1712926;80;21062;-80
2021/10/25 02:48:58;;;;;;;3.25;2.00;;;;;;;3.70;69.59;97570.58;1718081;81;21020;-80
2021/10/25 02:51:23;;;;;;;3.42;1.70;;;;;;;3.68;69.10;97571.16;1687565;82;21009;-80
2021/10/25 02:53:49;;;;;;;3.83;2.00;;;;;;;3.66;68.25;97564.02;1711181;81;21469;-80
2021/10/25 02:56:15;;;;;;;5.50;3.47;;;;;;;3.89;67.52;97547.74;1727248;82;21097;-80
2021/10/25 02:58:41;;;;;;;3.65;2.33;;;;;;;4.04;68.20;97556.56;1722395;81;21103;-80
2021/10/25 03:01:07;;;;;;;3.30;2.02;;;;;;;4.11;67.10;97554.73;1715019;82;20996;-81
2021/10/25 03:03:33;;;;;;;5.15;2.83;;;;;;;4.18;68.13;97549.94;1704564;82;21117;-80
2021/10/25 03:05:59;;;;;;;3.17;2.22;;;;;;;4.17;67.41;97547.02;1692306;83;21094;-80
2021/10/25 03:08:25;;;;;;;5.83;2.52;;;;;;;4.15;67.80;97542.45;1705043;81;21061;-80
2021/10/25 03:10:51;;;;;;;5.97;2.70;;;;;;;4.12;67.40;97547.83;1704818;82;21440;-79
2021/10/25 03:13:18;;;;;;;4.22;2.27;;;;;;;4.08;67.01;97544.67;1698323;82;21104;-80
2021/10/25 03:15:44;;;;;;;3.02;2.17;;;;;;;4.06;67.60;97552.94;1700592;82;21082;-80
2021/10/25 03:18:13;;;;;;;6.50;2.27;;;;;;;4.03;67.58;97551.06;1707872;82;21437;-80
2021/10/25 03:20:38;;;;;;;3.67;2.50;;;;;;;4.01;67.23;97551.64;1730625;81;21151;-80
2021/10/25 03:23:04;;;;;;;3.08;2.15;;;;;;;3.96;67.53;97554.56;1720204;81;21141;-80
2021/10/25 03:25:29;;;;;;;2.83;2.10;;;;;;;3.92;67.49;97549.30;1723016;81;21113;-80
2021/10/25 03:27:56;;;;;;;2.77;1.75;;;;;;;3.89;67.02;97549.49;1719288;82;21180;-80
2021/10/25 03:30:22;;;;;;;4.47;2.05;;;;;;;3.88;66.95;97551.71;1680711;82;21092;-80
2021/10/25 03:32:48;;;;;;;3.40;2.22;;;;;;;3.86;66.64;97548.44;1674235;83;21094;-80
2021/10/25 03:35:14;;;;;;;4.00;2.25;;;;;;;3.85;66.53;97541.19;1677293;81;21097;-80
2021/10/25 03:37:40;;;;;;;3.92;2.17;;;;;;;3.84;66.78;97533.13;1724258;80;21535;-80
2021/10/25 03:40:07;;;;;;;3.42;1.92;;;;;;;3.80;66.85;97538.14;1718574;80;21089;-80
2021/10/25 03:42:40;;;;;;;2.90;1.82;;;;;;;3.76;66.99;97535.45;1771305;80;21066;-80
2021/10/25 03:47:39;;;;;;;3.70;2.33;;;;;;;3.70;67.50;97535.88;1721682;80;21132;-80
2021/10/25 03:50:09;;;;;;;3.45;2.10;;;;;;;3.63;67.45;97526.98;1737200;81;21059;-80
2021/10/25 03:55:17;;;;;;;2.47;1.62;;;;;;;3.53;67.18;97523.41;1708123;82;21151;-80
2021/10/25 04:27:15;;;;;;;4.33;1.77;;;;;;;3.16;68.30;97485.41;1693132;82;21069;-80
2021/10/25 04:29:31;;;;;;;2.58;1.85;;;;;;;3.16;67.97;97486.22;1712412;81;21132;-79
2021/10/25 04:31:58;;;;;;;2.17;1.80;;;;;;;3.15;68.24;97491.01;1712182;82;21137;-80
2021/10/25 04:34:24;;;;;;;3.02;1.95;;;;;;;3.14;68.62;97481.66;1713989;80;21230;-80
2021/10/25 04:36:50;;;;;;;3.05;1.90;;;;;;;3.13;68.13;97479.21;1695289;82;21501;-80
2021/10/25 04:39:15;;;;;;;3.02;2.20;;;;;;;3.12;68.48;97486.56;1736435;80;21490;-80
2021/10/25 04:41:41;;;;;;;4.08;2.25;;;;;;;3.10;68.83;97485.85;1723293;80;21085;-80
2021/10/25 04:44:08;;;;;;;2.08;1.77;;;;;;;3.09;68.76;97478.61;1710048;81;21142;-80
2021/10/25 04:46:33;;;;;;;2.58;1.90;;;;;;;3.08;69.10;97479.98;1719900;80;21165;-80
2021/10/25 04:49:00;;;;;;;3.52;2.40;;;;;;;3.06;68.97;97478.80;1715688;81;21139;-80
2021/10/25 04:51:26;;;;;;;3.12;2.15;;;;;;;3.09;68.70;97471.34;1729619;80;21217;-80
2021/10/25 04:53:51;;;;;;;4.70;2.42;;;;;;;3.10;68.64;97475.58;1721013;81;21168;-80
2021/10/25 04:56:17;;;;;;;3.17;2.12;;;;;;;3.11;68.72;97469.05;1681980;83;21179;-80
2021/10/25 04:58:43;;;;;;;2.50;2.00;;;;;;;3.11;68.72;97476.75;1713226;82;21142;-80
2021/10/25 05:01:09;;;;;;;4.40;2.10;;;;;;;3.11;68.98;97471.62;1683667;83;21132;-80
2021/10/25 05:03:36;;;;;;;4.60;2.25;;;;;;;3.13;69.21;97480.49;1724247;80;21136;-80
2021/10/25 05:06:03;;;;;;;4.62;2.05;;;;;;;3.10;69.22;97485.39;1696621;81;21476;-80
2021/10/25 05:08:30;;;;;;;4.33;2.15;;;;;;;3.09;68.83;97487.59;1703870;81;21165;-80
2021/10/25 05:10:56;;;;;;;4.35;2.02;;;;;;;3.07;68.38;97484.76;1690035;83;21407;-80
2021/10/25 05:13:22;;;;;;;5.50;2.22;;;;;;;3.06;67.83;97482.66;1711338;81;21123;-80
2021/10/25 05:15:48;;;;;;;4.12;2.55;;;;;;;3.04;67.86;97472.96;1700692;81;21079;-80
2021/10/25 05:18:14;;;;;;;4.45;2.40;;;;;;;3.03;67.68;97475.64;1712002;80;21234;-80
2021/10/25 05:20:41;;;;;;;4.47;2.30;;;;;;;3.03;68.49;97480.31;1715154;81;21467;-80
2021/10/25 05:23:08;;;;;;;4.08;3.02;;;;;;;3.02;68.66;97465.83;1720926;80;21090;-80
2021/10/25 05:25:34;;;;;;;4.80;2.30;;;;;;;3.01;68.82;97454.75;1685984;83;21063;-80
2021/10/25 05:28:00;;;;;;;2.65;2.20;;;;;;;3.03;69.07;97460.23;1717194;81;21103;-80
2021/10/25 05:30:26;;;;;;;3.30;2.27;;;;;;;3.06;69.17;97463.86;1707485;83;21063;-80
2021/10/25 05:32:51;;;;;;;4.95;2.55;;;;;;;3.09;68.76;97456.78;1688175;82;21162;-80
2021/10/25 05:35:17;;;;;;;6.85;2.92;;;;;;;3.09;68.83;97479.89;1665594;84;21137;-80
2021/10/25 05:37:43;;;;;;;4.95;2.52;;;;;;;3.08;68.54;97476.13;1709243;81;21146;-80
2021/10/25 05:40:10;;;;;;;3.85;2.15;;;;;;;3.08;68.83;97483.83;1677800;83;21151;-79
2021/10/25 05:42:36;;;;;;;4.70;2.33;;;;;;;3.08;68.54;97482.08;1693824;82;21556;-80
2021/10/25 05:45:04;;;;;;;2.45;2.08;;;;;;;3.09;68.57;97473.48;1723829;80;21065;-80
2021/10/25 05:47:30;;;;;;;3.67;2.22;;;;;;;3.12;68.89;97473.72;1706425;82;21099;-80
2021/10/25 05:49:55;;;;;;;4.72;2.30;;;;;;;3.14;69.17;97478.28;1698894;83;21142;-80
2021/10/25 05:52:21;;;;;;;4.22;2.30;;;;;;;3.15;69.21;97469.64;1724503;81;21172;-80
2021/10/25 05:54:48;;;;;;;3.65;2.22;;;;;;;3.17;69.19;97463.93;1736396;80;21114;-80
2021/10/25 05:57:16;;;;;;;4.50;2.70;;;;;;;3.21;69.19;97456.36;1711422;81;21106;-80
2021/10/25 05:59:42;;;;;;;4.15;2.37;;;;;;;3.25;69.16;97455.20;1734061;81;21050;-79
2021/10/25 06:02:26;;;;;;;3.47;2.37;;;;;;;3.27;69.63;97468.31;1729850;81;21410;-80
2021/10/25 06:04:51;;;;;;;3.42;2.12;;;;;;;3.28;69.35;97468.66;1758724;80;21385;-80
2021/10/25 06:07:16;;;;;;;3.60;2.12;;;;;;;3.28;69.65;97465.28;1760168;79;21110;-80
2021/10/25 06:09:44;;;;;;;3.90;2.35;;;;;;;3.29;69.37;97468.20;1750779;79;21161;-80
2021/10/25 06:12:15;;;;;;;4.15;2.30;;;;;;;3.28;69.48;97467.84;1746475;79;21553;-80
2021/10/25 06:14:41;;;;;;;4.35;2.05;;;;;;;3.30;69.45;97465.98;1731272;79;21101;-79
2021/10/25 06:17:21;;;;;;;2.60;1.95;;;;;;;3.35;69.36;97466.46;1709061;81;21342;-80
2021/10/25 06:19:34;;;;;;;4.83;2.22;;;;;;;3.41;69.58;97463.91;1752281;80;21090;-79
2021/10/25 06:22:00;;;;;;;4.65;2.30;;;;;;;3.45;69.82;97467.92;1749827;79;21495;-80
2021/10/25 06:24:26;;;;;;;3.47;2.17;;;;;;;3.46;69.35;97469.09;1743966;81;21505;-80
2021/10/25 06:26:52;;;;;;;3.72;2.10;;;;;;;3.47;69.28;97468.63;1755121;79;21186;-80
2021/10/25 06:29:18;;;;;;;2.58;1.60;;;;;;;3.47;69.15;97468.63;1775779;78;21537;-80
2021/10/25 06:31:44;;;;;;;2.83;2.12;;;;;;;3.48;69.72;97473.64;1713401;81;21093;-80
2021/10/25 06:34:19;;;;;;;3.00;1.87;;;;;;;3.48;68.86;97480.07;1721350;82;21090;-80
2021/10/25 06:36:40;;;;;;;3.05;1.90;;;;;;;3.49;69.11;97475.28;1739360;81;21153;-80
2021/10/25 06:39:11;;;;;;;3.98;2.27;;;;;;;3.49;68.56;97478.31;1749557;79;21171;-80
2021/10/25 06:41:36;;;;;;;4.85;2.33;;;;;;;3.51;68.25;97475.17;1704393;81;21098;-80
2021/10/25 06:44:02;;;;;;;3.40;1.80;;;;;;;3.51;68.09;97475.98;1759981;78;21177;-80
2021/10/25 06:46:28;;;;;;;3.08;2.10;;;;;;;3.54;68.86;97472.38;1728889;81;21138;-80
2021/10/25 06:48:55;;;;;;;2.22;1.98;;;;;;;3.54;68.79;97475.77;1763285;79;21070;-80
2021/10/25 06:51:20;;;;;;;4.20;2.12;;;;;;;3.57;68.76;97472.14;1742606;78;21116;-80
2021/10/25 06:53:46;;;;;;;4.35;2.42;;;;;;;3.57;68.98;97476.81;1716923;81;21172;-80
2021/10/25 06:56:12;;;;;;;3.37;1.98;;;;;;;3.57;68.63;97471.68;1740468;80;21428;-80
2021/10/25 06:58:39;;;;;;;5.58;2.17;;;;;;;3.60;68.54;97478.37;1760622;80;21047;-80
2021/10/25 07:01:05;;;;;;;3.75;2.02;;;;;;;3.60;68.95;97474.52;1763061;79;21074;-80
2021/10/25 07:03:30;;;;;;;5.05;2.20;;;;;;;3.58;68.51;97472.06;1741914;80;21077;-80
2021/10/25 07:06:00;;;;;;;3.27;1.90;;;;;;;3.58;68.99;97475.91;1722788;82;21102;-80
2021/10/25 07:08:27;;;;;;;4.20;2.30;;;;;;;3.59;69.01;97479.30;1709171;81;21443;-80
2021/10/25 07:10:52;;;;;;;2.90;1.77;;;;;;;3.59;68.82;97474.16;1746933;80;21138;-80
2021/10/25 07:13:19;;;;;;;4.05;1.70;;;;;;;3.62;69.12;97477.79;1717242;81;21440;-80
2021/10/25 07:15:48;;;;;;;3.33;1.80;;;;;;;3.66;69.16;97477.91;1726226;81;21394;-80
2021/10/25 07:21:15;;;;;;;5.35;2.45;;;;;;;3.77;68.58;97477.14;1712168;81;21145;-79
2021/10/25 08:06:10;;;;;;;4.87;3.30;;;;;;;4.83;69.09;97448.41;1740554;80;21137;-81
2021/10/25 08:11:10;;;;;;;3.47;1.98;;;;;;;4.98;69.00;97451.55;1723684;82;21063;-80
2021/10/25 08:13:41;;;;;;;3.27;1.90;;;;;;;5.03;68.49;97448.59;1708666;81;21098;-80
2021/10/25 08:16:20;;;;;;;4.62;1.85;;;;;;;5.09;69.01;97442.98;1683053;82;21125;-80
2021/10/25 08:21:04;;;;;;;2.50;1.57;;;;;;;5.22;68.50;97440.25;1708907;81;21455;-80
2021/10/25 08:23:30;;;;;;;4.08;2.25;;;;;;;5.27;69.08;97441.98;1703630;81;21113;-81
2021/10/25 08:25:56;;;;;;;2.80;1.80;;;;;;;5.31;68.94;97442.89;1736822;81;21527;-80
2021/10/25 08:28:22;;;;;;;4.20;1.82;;;;;;;5.36;68.75;97443.34;1705148;81;21067;-80
2021/10/25 08:30:50;;;;;;;6.03;2.45;;;;;;;5.42;68.40;97445.91;1698254;83;21507;-80
2021/10/25 08:36:15;;;;;;;3.85;2.50;;;;;;;5.59;68.06;97443.25;1721265;82;21159;-80
2021/10/25 08:41:19;;;;;;;3.62;2.00;;;;;;;5.79;68.82;97445.49;1695283;83;21509;-80
2021/10/25 08:43:46;;;;;;;3.17;1.70;;;;;;;5.89;69.15;97448.97;1641158;86;21514;-80
2021/10/25 08:46:15;;;;;;;3.08;1.52;;;;;;;5.95;69.03;97436.87;1671183;83;21201;-80
2021/10/25 08:48:43;;;;;;;4.28;2.20;;;;;;;6.05;68.41;97439.52;1698733;83;21210;-80
2021/10/25 08:51:10;;;;;;;3.95;2.35;;;;;;;6.13;67.88;97438.39;1673938;83;21232;-80
2021/10/25 08:53:36;;;;;;;6.35;2.37;;;;;;;6.21;68.09;97434.23;1739954;81;21165;-80
2021/10/25 08:56:03;;;;;;;4.17;2.45;;;;;;;6.28;68.38;97441.80;1712233;79;21109;-80
2021/10/25 08:58:33;;;;;;;5.72;2.70;;;;;;;6.35;67.82;97435.66;1713177;79;21120;-80
2021/10/25 09:00:57;;;;;;;5.65;3.72;;;;;;;6.44;68.60;97436.16;1688632;82;21091;-80
2021/10/25 09:03:23;;;;;;;4.72;2.70;;;;;;;6.54;68.36;97438.79;1741692;81;21067;-80
2021/10/25 09:06:00;;;;;;;9.58;5.22;;;;;;;6.63;68.36;97431.53;1744844;81;21098;-80
2021/10/25 09:08:28;;;;;;;8.55;4.90;;;;;;;6.74;68.35;97427.56;1703491;82;21145;-80
2021/10/25 09:10:54;;;;;;;8.90;5.42;;;;;;;6.87;67.95;97427.33;1716081;81;21164;-80
2021/10/25 09:13:23;;;;;;;4.37;2.72;;;;;;;7.00;68.36;97420.14;1706416;81;21161;-80
2021/10/25 09:15:55;;;;;;;7.08;4.53;;;;;;;7.12;68.26;97417.76;1696824;82;21153;-80
2021/10/25 09:18:28;;;;;;;12.07;6.80;;;;;;;7.22;67.98;97413.42;1716564;81;21070;-80
2021/10/25 09:20:59;;;;;;;11.57;7.03;;;;;;;7.36;66.27;97417.37;1719039;81;21128;-80
2021/10/25 09:23:30;;;;;;;8.53;4.47;;;;;;;7.55;66.93;97421.72;1700036;83;21483;-81
2021/10/25 09:25:59;;;;;;;9.13;5.60;;;;;;;7.68;67.20;97424.84;1702541;83;21138;-80
2021/10/25 09:28:34;;;;;;;12.20;6.03;;;;;;;7.79;66.84;97417.39;1706540;81;21598;-81
2021/10/25 09:31:04;;;;;;;14.78;7.30;;;;;;;7.89;67.24;97420.78;1718646;82;21047;-80
2021/10/25 09:33:36;;;;;;;10.25;6.42;;;;;;;7.98;66.28;97413.97;1665156;83;21171;-80
2021/10/25 09:36:05;;;;;;;8.88;6.03;;;;;;;8.04;66.80;97412.92;1677502;82;21488;-80
2021/10/25 09:49:14;;;;;;;;;;;;;;;;;;;;;
2021/10/25 09:51:41;;;;;;;2.47;1.45;;;;;;;9.24;56.39;97405.10;1711118;82;21158;-80
2021/10/25 09:54:09;;;;;;;3.90;1.67;;;;;;;9.50;57.55;97403.39;1746324;80;20990;-80
2021/10/25 09:56:44;;;;;;;3.50;1.55;;;;;;;9.73;57.36;97404.20;1725369;80;21066;-81
2021/10/25 09:59:11;;;;;;;4.28;2.25;;;;;;;9.89;56.64;97404.31;1691625;83;21120;-80
2021/10/25 10:01:36;;;;;;;3.52;1.55;;;;;;;10.08;56.13;97401.52;1729443;81;21094;-81
2021/10/25 10:04:05;;;;;;;3.33;1.72;;;;;;;10.26;54.87;97399.39;1668429;83;21088;-81
2021/10/25 10:06:32;;;;;;;4.37;2.02;;;;;;;10.47;53.72;97403.70;1714034;81;21166;-81
2021/10/25 10:08:59;;;;;;;3.12;1.65;;;;;;;10.64;52.40;97391.59;1735472;80;21181;-81
2021/10/25 10:11:25;;;;;;;3.08;1.47;;;;;;;10.81;51.68;97384.98;1744208;80;21533;-81
2021/10/25 10:13:51;;;;;;;2.02;1.40;;;;;;;10.93;51.76;97382.91;1691206;83;21315;-80
2021/10/25 10:16:17;;;;;;;2.27;1.42;;;;;;;11.06;51.79;97378.52;1717956;82;21136;-80
2021/10/25 10:19:00;;;;;;;3.40;1.52;;;;;;;11.18;51.37;97371.23;1712318;81;21341;-81
2021/10/25 10:21:26;;;;;;;3.58;1.42;;;;;;;11.30;50.06;97377.27;1714303;81;21055;-81
2021/10/25 10:23:58;;;;;;;3.55;1.40;;;;;;;11.40;49.54;97371.91;1689780;84;21125;-81
2021/10/25 10:26:21;;;;;;;3.58;2.00;;;;;;;11.43;49.58;97368.49;1719201;81;21066;-81
2021/10/25 10:28:50;;;;;;;3.35;1.65;;;;;;;11.51;50.22;97369.45;1705610;81;21189;-81
2021/10/25 10:31:20;;;;;;;5.75;1.90;;;;;;;11.60;47.83;97372.39;1719801;82;21141;-81
2021/10/25 10:33:52;;;;;;;2.33;1.17;;;;;;;11.73;47.99;97366.20;1732693;81;21089;-81
2021/10/25 10:39:14;;;;;;;2.12;1.07;;;;;;;11.85;47.36;97361.47;1701857;80;21128;-81
2021/10/25 10:42:01;;;;;;;3.17;1.10;;;;;;;11.93;46.96;97362.29;1711110;82;21126;-81
2021/10/25 10:44:27;;;;;;;2.67;1.65;;;;;;;12.04;46.84;97357.22;1675155;83;21076;-81
2021/10/25 10:46:59;;;;;;;2.05;1.20;;;;;;;12.12;45.83;97360.28;1688472;81;21182;-81
2021/10/25 10:55:28;;;;;;;3.70;1.45;;;;;;;12.29;44.21;97364.46;1692985;83;21052;-81
2021/10/25 11:00:34;;;;;;;2.85;1.62;;;;;;;12.45;44.27;97357.08;1675179;82;21452;-81
2021/10/25 11:03:09;;;;;;;2.62;1.15;;;;;;;12.53;44.12;97357.86;1722838;81;21079;-81
2021/10/25 11:05:39;;;;;;;2.30;1.40;;;;;;;12.62;43.20;97353.41;1715837;81;21070;-81
2021/10/25 11:08:13;;;;;;;3.30;1.30;;;;;;;12.68;41.43;97355.32;1681253;83;21133;-81
2021/10/25 11:13:22;;;;;;;2.95;1.50;;;;;;;12.81;42.94;97349.55;1711256;82;21053;-81
2021/10/25 11:16:03;;;;;;;3.80;1.62;;;;;;;12.86;42.56;97348.08;1697670;81;21050;-81
2021/10/25 11:18:30;;;;;;;4.55;1.90;;;;;;;12.93;42.79;97353.41;1719789;81;21077;-81
2021/10/25 11:21:13;;;;;;;4.85;3.33;;;;;;;12.97;42.11;97346.84;1731817;81;21085;-81
2021/10/25 11:23:45;;;;;;;8.08;4.92;;;;;;;13.05;41.11;97349.42;1718347;81;21136;-81
2021/10/25 11:26:22;;;;;;;2.47;1.47;;;;;;;13.13;40.17;97349.34;1745467;80;21178;-81
2021/10/25 11:29:13;;;;;;;4.65;2.12;;;;;;;13.23;38.94;97345.73;1732004;81;21480;-81
2021/10/25 11:31:47;;;;;;;3.90;1.60;;;;;;;13.35;38.13;97345.66;1743688;79;21077;-81
2021/10/25 11:34:19;;;;;;;4.35;1.77;;;;;;;13.43;39.26;97340.35;1688937;82;21316;-81
2021/10/25 11:39:29;;;;;;;2.72;1.52;;;;;;;13.49;38.04;97337.83;1696598;81;21086;-81
2021/10/25 11:41:55;;;;;;;5.08;1.50;;;;;;;13.58;39.37;97345.61;1713179;82;21114;-81
2021/10/25 11:44:21;;;;;;;2.45;1.20;;;;;;;13.57;38.60;97334.36;1723387;81;21068;-81
2021/10/25 11:46:46;;;;;;;3.65;1.50;;;;;;;13.64;37.50;97327.92;1739465;81;21474;-81
2021/10/25 11:49:19;;;;;;;3.55;1.55;;;;;;;13.70;37.06;97327.22;1703000;81;21138;-81
2021/10/25 11:51:49;;;;;;;3.50;1.98;;;;;;;13.76;37.10;97319.48;1742411;81;21053;-81
2021/10/25 11:54:14;;;;;;;3.05;1.47;;;;;;;13.82;38.03;97323.98;1721727;80;21185;-82
2021/10/25 11:56:52;;;;;;;3.95;1.70;;;;;;;13.80;36.84;97320.73;1758645;81;21411;-81
2021/10/25 11:59:20;;;;;;;3.35;1.72;;;;;;;13.85;37.59;97328.55;1726211;81;21040;-82
2021/10/25 12:01:47;;;;;;;3.22;1.47;;;;;;;13.89;37.59;97324.58;1758244;81;21101;-81
2021/10/25 12:04:13;;;;;;;3.02;1.37;;;;;;;13.91;35.39;97327.33;1723183;80;21539;-81
2021/10/25 12:06:39;;;;;;;2.55;1.27;;;;;;;13.90;37.23;97323.09;1707494;80;21041;-81
2021/10/25 12:09:08;;;;;;;4.15;2.15;;;;;;;13.92;37.23;97317.69;1747426;80;21160;-81
2021/10/25 12:14:11;;;;;;;3.98;1.55;;;;;;;13.98;37.02;97317.77;1714358;82;21163;-82
2021/10/25 12:16:39;;;;;;;6.03;1.57;;;;;;;14.01;37.58;97314.01;1719000;81;21531;-82
2021/10/25 12:19:06;;;;;;;4.28;1.60;;;;;;;14.03;37.29;97315.95;1761497;79;21079;-82
2021/10/25 12:21:34;;;;;;;3.27;1.70;;;;;;;14.05;37.57;97307.42;1732434;79;21137;-81
2021/10/25 12:24:01;;;;;;;2.33;1.42;;;;;;;14.03;37.62;97316.75;1748479;80;21535;-82
2021/10/25 12:26:27;;;;;;;4.17;1.52;;;;;;;14.02;36.61;97309.91;1724524;81;21143;-82
2021/10/25 12:28:54;;;;;;;2.77;1.70;;;;;;;14.09;36.43;97310.80;1752399;81;21102;-81
2021/10/25 12:31:20;;;;;;;2.98;1.67;;;;;;;14.15;36.69;97303.21;1729451;81;21502;-81
2021/10/25 12:33:48;;;;;;;3.02;1.60;;;;;;;14.18;36.81;97304.18;1696971;83;21183;-81
2021/10/25 12:36:15;;;;;;;3.27;1.50;;;;;;;14.16;37.46;97300.45;1665925;84;22166;-82
2021/10/25 12:38:44;;;;;;;2.75;1.30;;;;;;;14.16;37.73;97299.14;1692368;83;21101;-82
2021/10/25 12:41:11;;;;;;;3.58;1.70;;;;;;;14.14;36.59;97299.79;1690240;83;21148;-82
2021/10/25 12:43:40;;;;;;;2.62;1.55;;;;;;;14.16;36.48;97286.07;1715783;82;21134;-82
2021/10/25 12:46:07;;;;;;;2.90;1.70;;;;;;;14.19;36.74;97274.44;1674257;83;21112;-82
2021/10/25 12:48:51;;;;;;;4.05;1.60;;;;;;;14.21;36.36;97278.98;1690214;81;21630;-82
2021/10/25 12:51:19;;;;;;;2.60;1.42;;;;;;;14.24;36.52;97282.53;1767244;80;21038;-81
2021/10/25 12:53:46;;;;;;;3.00;1.75;;;;;;;14.28;36.60;97265.48;1724232;81;21059;-82
2021/10/25 12:56:13;;;;;;;3.22;1.77;;;;;;;14.24;36.69;97265.05;1696571;82;21048;-81
2021/10/25 12:58:39;;;;;;;2.77;1.70;;;;;;;14.20;36.67;97256.45;1690946;83;21171;-82
2021/10/25 13:01:11;;;;;;;4.95;1.70;;;;;;;14.21;36.49;97253.66;1726448;82;21062;-82
2021/10/25 13:03:37;;;;;;;5.97;3.15;;;;;;;14.22;35.54;97250.54;1731829;80;21188;-82
2021/10/25 13:06:08;;;;;;;4.67;2.27;;;;;;;14.21;35.58;97251.53;1692227;84;21138;-82
2021/10/25 13:08:35;;;;;;;4.78;1.67;;;;;;;14.20;35.89;97248.11;1717651;82;21107;-82
2021/10/25 13:11:01;;;;;;;2.42;1.40;;;;;;;14.20;35.58;97237.66;1674782;83;21166;-82
2021/10/25 13:13:33;;;;;;;3.27;1.50;;;;;;;14.21;34.76;97237.97;1738667;81;21107;-81
2021/10/25 13:15:59;;;;;;;2.52;1.40;;;;;;;14.21;34.79;97229.31;1717401;81;21127;-82
2021/10/25 13:18:25;;;;;;;4.65;1.50;;;;;;;14.22;35.38;97233.05;1691112;82;22305;-81
2021/10/25 13:20:51;;;;;;;3.08;1.72;;;;;;;14.21;35.45;97235.36;1691162;83;21221;-81
2021/10/25 13:23:17;;;;;;;3.37;1.47;;;;;;;14.22;35.42;97225.21;1694905;82;21106;-82
2021/10/25 13:25:43;;;;;;;1.90;1.10;;;;;;;14.23;35.02;97226.83;1698952;82;21614;-82
2021/10/25 13:28:09;;;;;;;3.72;1.40;;;;;;;14.24;33.85;97212.77;1744990;80;21605;-82
2021/10/25 13:30:36;;;;;;;2.95;1.25;;;;;;;14.22;34.64;97216.06;1704121;81;21160;-81
2021/10/25 13:33:02;;;;;;;2.37;1.15;;;;;;;14.18;34.22;97201.75;1762980;80;21085;-81
2021/10/25 13:35:28;;;;;;;3.33;1.20;;;;;;;14.17;35.12;97203.24;1767313;80;21476;-82
2021/10/25 13:37:55;;;;;;;2.67;1.35;;;;;;;14.14;34.34;97203.09;1672136;83;21161;-82
2021/10/25 13:42:55;;;;;;;3.45;1.17;;;;;;;14.04;33.81;97203.40;1715355;81;21122;-82
2021/10/25 13:45:20;;;;;;;2.83;1.30;;;;;;;14.01;34.26;97210.80;1692762;82;21572;-82